Time;durP1;ratioP1;P1;durP2;ratioP2;P2;SDS_P1;SDS_P2;PMS_P1;PMS_P2;Temp;Humidity;BMP_temperature;BMP_pressure;BME280_temperature;BME280_humidity;BME280_pressure;Samples;Min_cycle;Max_cycle;Signal;HPM_P1;HPM_P2
2023/02/15 00:01:29;;;;;;;4.35;1.50;;;;;;;-0.61;77.68;147178.47;5064679;28;20325;-64
2023/02/15 00:03:54;;;;;;;3.67;1.55;;;;;;;-0.64;78.70;147170.84;5064485;28;20029;-64
2023/02/15 00:06:20;;;;;;;2.90;1.60;;;;;;;-0.63;78.13;147172.09;5064225;28;20310;-63
2023/02/15 00:08:45;;;;;;;3.88;1.50;;;;;;;-0.57;77.68;147188.63;5064412;28;20032;-64
2023/02/15 00:11:14;;;;;;;2.53;1.60;;;;;;;-0.57;77.90;147187.34;5064136;28;20269;-63
2023/02/15 00:13:42;;;;;;;3.60;1.63;;;;;;;-0.49;78.01;147206.44;5064187;28;20028;-64
2023/02/15 00:16:12;;;;;;;3.65;1.60;;;;;;;-0.68;77.98;147160.69;5053471;28;20041;-63
2023/02/15 00:18:41;;;;;;;3.80;1.30;;;;;;;-0.80;78.59;147131.44;5044451;28;20017;-62
2023/02/15 00:21:09;;;;;;;3.08;1.40;;;;;;;-0.77;77.80;147137.78;5060840;28;20093;-62
2023/02/15 00:23:35;;;;;;;3.22;1.60;;;;;;;-0.66;77.39;147165.75;5064366;28;20093;-63
2023/02/15 00:26:09;;;;;;;5.55;1.88;;;;;;;-0.67;77.74;147163.22;5056285;28;20067;-63
2023/02/15 00:28:35;;;;;;;4.43;1.52;;;;;;;-0.64;77.76;147170.84;5063776;28;20522;-63
2023/02/15 00:31:10;;;;;;;3.28;1.55;;;;;;;-0.78;77.71;147135.28;5063673;28;20047;-61
2023/02/15 00:33:36;;;;;;;3.72;1.60;;;;;;;-0.63;77.99;147173.34;5055284;28;20039;-62
2023/02/15 00:36:04;;;;;;;3.72;1.58;;;;;;;-0.62;77.88;147174.66;5062972;28;20317;-62
2023/02/15 00:38:31;;;;;;;4.13;1.77;;;;;;;-0.73;77.95;147147.97;5062112;28;20029;-62
2023/02/15 00:40:59;;;;;;;3.17;1.38;;;;;;;-0.60;78.42;147179.72;5062398;28;20320;-62
2023/02/15 00:43:30;;;;;;;4.65;1.40;;;;;;;-0.54;77.37;147195.00;5056981;28;20033;-62
2023/02/15 00:45:55;;;;;;;2.60;1.33;;;;;;;-0.67;77.69;147163.22;5061234;28;20037;-63
2023/02/15 00:48:21;;;;;;;4.43;1.65;;;;;;;-0.78;77.95;147135.28;5059037;28;20044;-62
2023/02/15 00:50:51;;;;;;;4.97;1.55;;;;;;;-0.61;78.08;147178.47;5060062;28;20029;-63
2023/02/15 00:53:16;;;;;;;3.78;1.67;;;;;;;-0.64;77.47;147170.84;5063375;28;20032;-64
2023/02/15 00:55:42;;;;;;;2.08;1.30;;;;;;;-0.83;78.49;147123.81;5063522;28;20088;-63
2023/02/15 00:58:09;;;;;;;3.17;1.52;;;;;;;-0.75;78.07;147142.91;5063549;28;20025;-62
2023/02/15 01:00:36;;;;;;;3.10;1.45;;;;;;;-0.73;78.38;147147.97;5063292;28;20321;-62
2023/02/15 01:03:01;;;;;;;4.22;1.40;;;;;;;-0.80;78.81;147131.44;5063290;28;20024;-63
2023/02/15 01:05:29;;;;;;;5.80;1.92;;;;;;;-0.90;78.49;147107.31;5061508;28;20020;-62
2023/02/15 01:07:55;;;;;;;5.15;1.73;;;;;;;-0.74;78.43;147145.41;5053132;28;20052;-63
2023/02/15 01:10:21;;;;;;;4.65;1.67;;;;;;;-0.64;78.98;147169.56;5063215;28;20029;-63
2023/02/15 01:12:46;;;;;;;5.47;1.90;;;;;;;-0.56;78.59;147191.13;5062957;28;20057;-63
2023/02/15 01:15:12;;;;;;;5.30;1.90;;;;;;;-0.80;78.78;147131.44;5062987;28;20221;-63
2023/02/15 01:17:37;;;;;;;6.28;1.98;;;;;;;-0.67;78.70;147161.94;5063177;28;20033;-64
2023/02/15 01:20:04;;;;;;;5.85;1.83;;;;;;;-0.75;78.50;147142.91;5062157;28;20024;-65
2023/02/15 01:22:30;;;;;;;4.75;1.83;;;;;;;-0.72;78.47;147151.75;5062913;28;20360;-64
2023/02/15 01:24:55;;;;;;;3.03;1.88;;;;;;;-0.67;79.47;147163.22;5062596;28;20041;-64
2023/02/15 01:27:21;;;;;;;3.05;1.48;;;;;;;-0.75;79.41;147142.91;5063124;28;20079;-63
2023/02/15 01:29:47;;;;;;;5.18;2.10;;;;;;;-0.82;78.42;147125.09;5062585;28;20035;-63
2023/02/15 01:32:13;;;;;;;4.93;1.63;;;;;;;-0.76;78.63;147140.34;5062518;28;20029;-63
2023/02/15 01:34:38;;;;;;;4.60;1.52;;;;;;;-0.96;79.58;147092.06;5062843;28;20341;-65
2023/02/15 01:37:04;;;;;;;4.07;1.58;;;;;;;-0.79;78.62;147133.97;5062574;28;20025;-64
2023/02/15 01:39:29;;;;;;;4.60;1.60;;;;;;;-0.73;79.04;147149.25;5062741;28;20021;-64
2023/02/15 01:41:55;;;;;;;2.28;1.38;;;;;;;-0.77;78.13;147137.78;5062554;28;20059;-63
2023/02/15 01:44:42;;;;;;;3.15;1.50;;;;;;;-0.74;78.34;147145.41;5062340;28;20055;-64
2023/02/15 01:47:12;;;;;;;6.60;1.88;;;;;;;-0.92;77.42;147102.22;5042465;28;20033;-64
2023/02/15 01:49:40;;;;;;;6.65;1.77;;;;;;;-0.83;77.39;147122.56;5054395;28;20088;-63
2023/02/15 01:52:10;;;;;;;3.92;1.25;;;;;;;-0.76;77.25;147140.34;5060980;28;20045;-63
2023/02/15 01:54:38;;;;;;;4.60;1.65;;;;;;;-0.89;77.71;147108.56;5061744;28;20071;-64
2023/02/15 01:57:18;;;;;;;7.68;2.42;;;;;;;-0.81;76.30;147127.63;5059626;28;20082;-63
2023/02/15 01:59:48;;;;;;;3.88;1.60;;;;;;;-0.94;76.24;147097.16;5050595;28;20025;-63
2023/02/15 02:02:16;;;;;;;2.38;1.20;;;;;;;-0.69;75.43;147158.13;5062072;28;20037;-63
2023/02/15 02:04:49;;;;;;;4.03;1.65;;;;;;;-0.87;75.28;147114.94;5061863;28;20024;-63
2023/02/15 02:07:18;;;;;;;3.15;1.52;;;;;;;-0.85;75.81;147117.50;5062068;28;20033;-63
2023/02/15 02:09:45;;;;;;;6.05;1.65;;;;;;;-0.92;75.53;147102.22;5060978;28;20063;-62
2023/02/15 02:12:11;;;;;;;6.10;1.85;;;;;;;-0.96;75.28;147092.06;5050984;28;20052;-63
2023/02/15 02:14:38;;;;;;;4.85;1.67;;;;;;;-0.92;75.65;147100.97;5054552;28;20048;-63
2023/02/15 02:17:17;;;;;;;5.65;1.77;;;;;;;-0.78;75.36;147136.53;5043090;28;20222;-63
2023/02/15 02:19:56;;;;;;;5.13;1.83;;;;;;;-0.71;74.89;147154.31;5047587;28;20033;-62
2023/02/15 02:22:41;;;;;;;5.57;2.17;;;;;;;-0.65;74.28;147167.03;5053246;28;20096;-63
2023/02/15 02:25:24;;;;;;;4.75;1.90;;;;;;;-0.68;73.40;147160.69;5060364;28;20025;-64
2023/02/15 02:28:03;;;;;;;5.63;1.70;;;;;;;-0.68;73.89;147160.69;5058971;28;20298;-62
2023/02/15 02:30:53;;;;;;;4.38;1.63;;;;;;;-0.60;75.37;147181.03;5061749;28;20029;-62
2023/02/15 02:33:18;;;;;;;7.20;1.95;;;;;;;-0.78;74.56;147135.28;5054242;28;20071;-62
2023/02/15 02:36:26;;;;;;;6.07;1.65;;;;;;;-0.66;73.63;147164.50;5061868;28;20024;-62
2023/02/15 02:39:22;;;;;;;4.50;1.42;;;;;;;-0.73;72.97;147147.97;5061427;28;20043;-63
2023/02/15 02:42:13;;;;;;;4.93;1.65;;;;;;;-0.68;73.86;147160.69;5050181;28;20294;-62
2023/02/15 02:44:56;;;;;;;7.22;1.80;;;;;;;-0.72;73.24;147150.50;5060476;28;20044;-63
2023/02/15 02:47:29;;;;;;;4.07;1.80;;;;;;;-0.72;74.06;147150.50;5060597;28;20246;-63
2023/02/15 02:50:00;;;;;;;5.40;2.03;;;;;;;-0.64;73.59;147169.56;5061490;28;20287;-63
2023/02/15 02:52:42;;;;;;;5.05;1.95;;;;;;;-0.74;73.80;147145.41;5061775;28;20100;-63
2023/02/15 02:55:17;;;;;;;6.20;2.10;;;;;;;-0.88;74.48;147112.38;5061575;28;20024;-62
2023/02/15 02:57:57;;;;;;;6.28;2.25;;;;;;;-0.78;74.85;147135.28;5060899;28;20025;-62
2023/02/15 03:00:25;;;;;;;4.88;1.90;;;;;;;-0.98;73.43;147085.69;5061501;28;20033;-63
2023/02/15 03:03:06;;;;;;;6.20;2.70;;;;;;;-1.04;74.36;147071.75;5061449;28;20400;-63
2023/02/15 03:05:37;;;;;;;6.32;2.33;;;;;;;-1.16;73.65;147041.28;5061279;28;20064;-64
2023/02/15 03:08:05;;;;;;;7.55;2.42;;;;;;;-0.96;73.76;147092.06;5061362;28;20112;-63
2023/02/15 03:10:34;;;;;;;4.03;2.03;;;;;;;-0.95;74.20;147093.34;5061290;28;20032;-63
2023/02/15 03:13:00;;;;;;;4.90;2.10;;;;;;;-0.97;74.09;147089.53;5061233;28;20286;-64
2023/02/15 03:16:25;;;;;;;4.93;2.03;;;;;;;-1.03;74.14;147074.28;5061043;28;20031;-63
2023/02/15 03:18:20;;;;;;;5.32;2.60;;;;;;;-0.91;73.57;147104.78;5063841;28;20096;-63
2023/02/15 03:20:47;;;;;;;6.28;2.22;;;;;;;-0.84;73.46;147120.00;5065322;28;20317;-63
2023/02/15 03:23:20;;;;;;;5.70;2.03;;;;;;;-1.00;74.05;147080.63;5064030;28;20039;-63
2023/02/15 03:25:59;;;;;;;7.20;2.65;;;;;;;-1.01;73.97;147079.38;5048354;28;20377;-62
2023/02/15 03:28:35;;;;;;;4.38;2.10;;;;;;;-1.04;74.26;147071.75;5064542;28;20141;-63
2023/02/15 03:31:05;;;;;;;6.70;1.98;;;;;;;-1.00;73.56;147081.88;5058431;28;20025;-64
2023/02/15 03:33:32;;;;;;;3.17;1.90;;;;;;;-0.94;74.21;147097.16;5065039;28;20028;-63
2023/02/15 03:36:00;;;;;;;4.82;2.10;;;;;;;-0.96;74.93;147090.78;5064758;28;20021;-63
2023/02/15 03:38:34;;;;;;;6.13;2.15;;;;;;;-0.86;74.68;147116.19;5064722;28;20024;-64
2023/02/15 03:41:11;;;;;;;6.25;2.40;;;;;;;-0.99;74.01;147083.19;5064746;28;20033;-64
2023/02/15 03:43:55;;;;;;;5.20;2.15;;;;;;;-1.03;73.92;147074.28;5064910;28;20025;-63
2023/02/15 03:46:43;;;;;;;5.07;2.05;;;;;;;-1.13;74.37;147050.13;5051961;28;20036;-64
2023/02/15 03:49:15;;;;;;;4.50;1.88;;;;;;;-1.26;74.49;147018.38;5064454;28;20360;-63
2023/02/15 03:51:45;;;;;;;4.28;1.90;;;;;;;-1.37;74.38;146989.19;5064352;28;20020;-64
2023/02/15 04:03:33;;;;;;;2.88;1.67;;;;;;;-1.11;74.34;147053.94;5055892;28;20044;-64
2023/02/15 04:06:01;;;;;;;7.05;2.53;;;;;;;-1.35;74.24;146995.53;5063945;28;20027;-64
2023/02/15 04:10:51;;;;;;;8.63;3.28;;;;;;;-1.19;74.83;147034.91;5064159;28;20063;-63
2023/02/15 04:11:12;;;;;;;3.38;1.83;;;;;;;-1.08;74.45;147061.59;5064097;28;20364;-64
2023/02/15 04:13:38;;;;;;;6.38;2.08;;;;;;;-0.94;74.03;147097.16;5063201;28;20024;-65
2023/02/15 04:16:04;;;;;;;4.68;1.70;;;;;;;-1.10;73.75;147056.50;5052777;28;20115;-64
2023/02/15 04:26:56;;;;;;;5.82;2.20;;;;;;;-1.22;73.40;147028.56;5063966;28;20206;-63
2023/02/15 04:29:23;;;;;;;7.60;2.00;;;;;;;-1.09;72.63;147059.03;5063574;28;20021;-63
2023/02/15 04:31:50;;;;;;;4.20;1.90;;;;;;;-1.17;72.98;147038.72;5063699;28;20553;-64
2023/02/15 04:34:15;;;;;;;4.20;2.00;;;;;;;-1.14;72.75;147046.31;5063827;28;20067;-63
2023/02/15 04:36:41;;;;;;;5.25;1.77;;;;;;;-1.10;73.06;147057.78;5063640;28;20025;-63
2023/02/15 04:39:08;;;;;;;4.65;1.80;;;;;;;-1.22;73.14;147027.28;5063485;28;20036;-62
2023/02/15 04:41:34;;;;;;;6.05;1.73;;;;;;;-1.18;72.76;147037.47;5063586;28;20032;-64
2023/02/15 04:44:00;;;;;;;5.18;1.80;;;;;;;-1.19;72.13;147034.91;5063334;28;20047;-63
2023/02/15 04:46:27;;;;;;;4.13;1.45;;;;;;;-1.11;72.35;147055.22;5063545;28;20025;-63
2023/02/15 04:48:54;;;;;;;4.40;1.85;;;;;;;-1.22;72.38;147028.56;5063410;28;20127;-63
2023/02/15 04:51:20;;;;;;;5.18;1.80;;;;;;;-1.17;71.73;147038.72;5062964;28;20083;-63
2023/02/15 04:53:45;;;;;;;2.78;1.60;;;;;;;-1.11;72.04;147053.94;5063381;28;20223;-64
2023/02/15 04:56:11;;;;;;;5.63;2.15;;;;;;;-1.22;71.40;147027.28;5062948;28;20096;-62
2023/02/15 04:58:40;;;;;;;9.15;2.72;;;;;;;-1.34;72.45;146998.09;5057986;28;20043;-64
2023/02/15 05:01:06;;;;;;;6.50;2.00;;;;;;;-1.33;72.07;146999.34;5060784;28;20320;-65
2023/02/15 05:03:32;;;;;;;4.60;2.08;;;;;;;-1.28;70.82;147012.06;5063008;28;20092;-64
2023/02/15 05:05:57;;;;;;;6.38;2.45;;;;;;;-1.20;71.88;147031.09;5059626;28;20051;-65
2023/02/15 05:08:23;;;;;;;3.55;1.90;;;;;;;-1.32;72.88;147003.16;5062303;28;20017;-64
2023/02/15 05:10:49;;;;;;;4.40;2.08;;;;;;;-1.27;72.17;147014.56;5063009;28;20045;-64
2023/02/15 05:13:15;;;;;;;6.47;2.63;;;;;;;-1.37;72.50;146989.19;5062824;28;20028;-64
2023/02/15 05:15:41;;;;;;;3.45;1.85;;;;;;;-1.27;72.61;147014.56;5063020;28;20100;-64
2023/02/15 05:18:07;;;;;;;5.72;2.10;;;;;;;-1.26;72.43;147018.38;5062754;28;20017;-63
2023/02/15 05:20:33;;;;;;;7.07;2.30;;;;;;;-1.29;72.48;147010.78;5062814;28;20037;-64
2023/02/15 05:22:59;;;;;;;6.93;2.13;;;;;;;-1.34;72.13;146996.81;5059506;28;20381;-63
2023/02/15 05:28:19;;;;;;;4.15;2.08;;;;;;;-1.51;71.78;146954.91;5060879;28;20031;-64
2023/02/15 05:30:45;;;;;;;6.57;2.20;;;;;;;-1.56;70.75;146944.72;5057489;28;20035;-63
2023/02/15 05:33:11;;;;;;;4.53;2.08;;;;;;;-1.49;71.65;146961.25;5062660;28;20101;-63
2023/02/15 05:35:36;;;;;;;6.22;1.77;;;;;;;-1.49;71.10;146960.00;5061882;28;20029;-63
2023/02/15 05:38:02;;;;;;;4.78;2.05;;;;;;;-1.53;70.16;146951.09;5047892;28;20030;-64
2023/02/15 05:40:28;;;;;;;6.18;2.40;;;;;;;-1.65;71.16;146921.91;5059633;28;20301;-63
2023/02/15 05:42:53;;;;;;;4.43;2.10;;;;;;;-1.48;71.23;146962.50;5058083;28;20021;-65
2023/02/15 05:45:19;;;;;;;8.07;2.35;;;;;;;-1.48;71.11;146963.81;5062301;28;20048;-64
2023/02/15 05:47:44;;;;;;;5.55;1.98;;;;;;;-1.34;71.35;146996.81;5061855;28;20056;-63
2023/02/15 05:50:11;;;;;;;4.88;2.25;;;;;;;-1.44;70.88;146972.66;5060614;28;20758;-64
2023/02/15 05:52:36;;;;;;;7.72;2.53;;;;;;;-1.47;69.42;146965.06;5059323;28;20040;-63
2023/02/15 05:55:04;;;;;;;5.18;2.03;;;;;;;-1.43;70.13;146976.47;5058826;28;20035;-64
2023/02/15 05:57:29;;;;;;;7.93;2.15;;;;;;;-1.40;69.67;146984.13;5060346;28;20029;-65
2023/02/15 05:59:55;;;;;;;7.35;2.35;;;;;;;-1.40;70.21;146984.13;5055635;28;20027;-64
2023/02/15 06:02:20;;;;;;;8.70;2.92;;;;;;;-1.50;70.08;146958.69;5061209;28;20098;-64
2023/02/15 06:04:46;;;;;;;7.57;2.28;;;;;;;-1.37;71.80;146990.44;5040278;28;20044;-64
2023/02/15 06:07:12;;;;;;;11.32;2.25;;;;;;;-1.35;70.40;146995.53;5052922;28;20100;-65
2023/02/15 06:09:37;;;;;;;5.25;2.40;;;;;;;-1.37;69.96;146990.44;5054774;28;20017;-64
2023/02/15 06:12:03;;;;;;;6.88;2.63;;;;;;;-1.70;70.43;146909.19;5060114;28;20040;-64
2023/02/15 06:14:28;;;;;;;16.05;4.80;;;;;;;-1.40;69.63;146982.84;5061416;28;20025;-63
2023/02/15 06:16:54;;;;;;;6.00;2.50;;;;;;;-1.46;69.80;146967.59;5045962;28;20071;-64
2023/02/15 06:19:20;;;;;;;8.18;2.65;;;;;;;-1.38;69.97;146987.94;5060934;28;20048;-64
2023/02/15 06:21:46;;;;;;;6.10;2.50;;;;;;;-1.39;69.70;146986.63;5061998;28;20032;-63
2023/02/15 06:24:12;;;;;;;6.15;2.95;;;;;;;-1.29;70.05;147010.78;5061836;28;20039;-63
2023/02/15 06:26:37;;;;;;;4.38;2.42;;;;;;;-1.30;69.72;147006.97;5047968;28;20051;-64
2023/02/15 06:29:03;;;;;;;4.65;2.53;;;;;;;-1.39;69.57;146985.38;5060958;28;20206;-64
2023/02/15 06:31:29;;;;;;;10.68;2.63;;;;;;;-1.47;69.55;146966.34;5061946;28;20316;-65
2023/02/15 06:34:00;;;;;;;6.32;2.78;;;;;;;-1.35;70.12;146995.53;5061627;28;20029;-66
2023/02/15 06:36:30;;;;;;;7.88;3.08;;;;;;;-1.54;70.23;146947.28;5057837;28;20032;-64
2023/02/15 06:38:56;;;;;;;7.05;2.92;;;;;;;-1.37;69.13;146990.44;5060609;28;20048;-64
2023/02/15 06:41:22;;;;;;;4.82;2.95;;;;;;;-1.37;70.84;146990.44;5061038;28;20032;-64
2023/02/15 06:43:48;;;;;;;6.80;3.10;;;;;;;-1.49;68.88;146960.00;5061453;28;20032;-66
2023/02/15 06:46:14;;;;;;;6.50;3.10;;;;;;;-1.40;70.46;146982.84;5061142;28;20190;-64
2023/02/15 06:48:40;;;;;;;6.03;3.15;;;;;;;-1.34;70.85;146996.81;5055309;28;20040;-63
2023/02/15 06:51:05;;;;;;;7.03;3.08;;;;;;;-1.29;70.69;147009.53;5046468;28;20055;-65
2023/02/15 06:53:31;;;;;;;5.90;3.08;;;;;;;-1.16;70.50;147041.28;5068228;28;20028;-64
2023/02/15 06:56:02;;;;;;;3.40;2.70;;;;;;;-1.37;68.89;146990.44;5068280;28;20048;-66
2023/02/15 06:58:28;;;;;;;8.25;3.35;;;;;;;-1.46;70.59;146967.59;5055351;28;20033;-66
2023/02/15 07:00:53;;;;;;;6.88;3.00;;;;;;;-1.48;70.46;146962.50;5060748;28;20044;-66
2023/02/15 07:03:19;;;;;;;3.50;2.80;;;;;;;-1.28;71.03;147012.06;5062899;28;20036;-67
2023/02/15 07:05:53;;;;;;;6.78;3.30;;;;;;;-1.31;69.93;147005.72;5055012;28;20021;-64
2023/02/15 07:14:43;;;;;;;7.53;3.42;;;;;;;-1.58;71.33;146938.44;5068088;28;20036;-64
2023/02/15 07:17:09;;;;;;;4.72;3.00;;;;;;;-1.35;71.28;146995.53;5063753;28;20025;-65
2023/02/15 07:19:34;;;;;;;10.10;3.10;;;;;;;-1.33;71.87;147000.59;5063915;28;20033;-65
2023/02/15 07:22:00;;;;;;;7.85;2.90;;;;;;;-1.39;72.23;146985.38;5057767;28;20096;-66
2023/02/15 07:24:25;;;;;;;6.25;3.00;;;;;;;-1.24;71.11;147022.19;5060371;28;20267;-66
2023/02/15 07:26:51;;;;;;;9.35;3.17;;;;;;;-1.71;73.00;146905.38;5057689;28;20055;-66
2023/02/15 07:29:17;;;;;;;5.63;2.92;;;;;;;-1.37;73.39;146989.19;5060401;28;20063;-67
2023/02/15 07:31:45;;;;;;;5.65;2.70;;;;;;;-1.33;71.65;146999.34;5067789;28;20337;-65
2023/02/15 07:34:11;;;;;;;6.10;3.03;;;;;;;-1.24;72.28;147022.19;5067193;28;20044;-65
2023/02/15 07:36:37;;;;;;;6.72;3.30;;;;;;;-1.18;71.53;147037.47;5067597;28;20087;-65
2023/02/15 07:39:03;;;;;;;7.13;3.30;;;;;;;-1.16;70.88;147041.28;5067326;28;20028;-65
2023/02/15 07:41:28;;;;;;;5.13;3.15;;;;;;;-1.18;70.19;147037.47;5067961;28;20080;-65
2023/02/15 07:43:54;;;;;;;8.07;3.53;;;;;;;-0.94;71.40;147095.84;5067704;28;20036;-64
2023/02/15 07:46:20;;;;;;;7.28;3.63;;;;;;;-0.99;70.32;147084.44;5067453;28;20064;-64
2023/02/15 07:48:46;;;;;;;10.13;3.72;;;;;;;-1.18;70.72;147037.47;5067347;28;20036;-65
2023/02/15 07:51:14;;;;;;;6.53;3.55;;;;;;;-1.06;71.44;147066.66;5066152;28;20037;-65
2023/02/15 07:53:40;;;;;;;5.65;3.00;;;;;;;-1.54;71.52;146947.28;5066803;28;20369;-64
2023/02/15 07:56:10;;;;;;;5.53;3.58;;;;;;;-1.42;71.43;146979.03;5067330;28;20298;-65
2023/02/15 07:58:51;;;;;;;6.65;3.17;;;;;;;-1.07;70.82;147064.09;5059508;28;20037;-65
2023/02/15 08:01:26;;;;;;;5.38;2.83;;;;;;;-1.55;70.68;146946.03;5065749;28;20098;-65
2023/02/15 08:03:53;;;;;;;6.28;3.55;;;;;;;-1.13;71.08;147048.88;5058515;28;20056;-65
2023/02/15 08:06:19;;;;;;;6.53;3.15;;;;;;;-1.05;71.09;147069.22;5054066;28;20501;-66
2023/02/15 08:08:45;;;;;;;9.55;3.55;;;;;;;-1.16;70.93;147042.50;5048186;28;20030;-65
2023/02/15 08:11:25;;;;;;;9.13;3.50;;;;;;;-1.43;69.69;146975.22;5063624;28;20102;-64
2023/02/15 08:14:12;;;;;;;6.93;3.42;;;;;;;-1.30;70.16;147006.97;5059610;28;20051;-65
2023/02/15 08:16:50;;;;;;;6.10;3.20;;;;;;;-1.23;69.90;147026.03;5055524;28;20108;-65
2023/02/15 08:19:28;;;;;;;9.25;3.63;;;;;;;-1.48;70.63;146962.50;5063550;28;20029;-67
2023/02/15 08:22:01;;;;;;;3.58;2.50;;;;;;;-1.66;69.80;146919.34;5058409;28;20036;-65
2023/02/15 08:24:29;;;;;;;5.47;3.13;;;;;;;-1.49;69.98;146961.25;5063115;28;20067;-66
2023/02/15 08:26:55;;;;;;;5.85;3.17;;;;;;;-1.53;69.73;146951.09;5063830;28;20032;-65
2023/02/15 08:29:24;;;;;;;5.72;3.08;;;;;;;-1.49;71.04;146961.25;5061813;28;20029;-65
2023/02/15 08:31:53;;;;;;;5.82;3.20;;;;;;;-1.52;69.67;146953.63;5056829;28;20048;-66
2023/02/15 08:34:20;;;;;;;5.60;2.72;;;;;;;-1.25;70.00;147019.69;5063351;28;20078;-63
2023/02/15 08:36:46;;;;;;;8.65;2.80;;;;;;;-1.37;70.30;146989.19;5053006;28;20352;-64
2023/02/15 08:39:13;;;;;;;5.72;2.92;;;;;;;-1.23;68.96;147026.03;5058665;28;20044;-66
2023/02/15 08:41:41;;;;;;;5.20;3.20;;;;;;;-1.20;70.57;147032.34;5057987;28;20086;-66
2023/02/15 08:44:09;;;;;;;4.57;3.45;;;;;;;-1.19;70.21;147033.66;5054838;28;20017;-65
2023/02/15 08:46:40;;;;;;;8.40;2.90;;;;;;;-1.27;70.31;147015.88;5057970;28;20045;-64
2023/02/15 08:49:06;;;;;;;4.07;3.05;;;;;;;-1.30;70.57;147006.97;5056355;28;20029;-65
2023/02/15 08:51:37;;;;;;;4.55;3.22;;;;;;;-1.32;70.53;147003.16;5058997;28;20025;-63
2023/02/15 08:54:05;;;;;;;4.30;2.70;;;;;;;-1.39;71.42;146986.63;5062241;28;20041;-64
2023/02/15 08:56:36;;;;;;;4.68;2.95;;;;;;;-1.62;71.21;146929.50;5054471;28;20096;-64
2023/02/15 08:59:31;;;;;;;6.47;3.03;;;;;;;-1.29;70.69;147010.78;5063460;28;20025;-65
2023/02/15 09:01:56;;;;;;;5.60;3.03;;;;;;;-1.30;71.72;147008.22;5046763;28;20450;-66
2023/02/15 09:04:22;;;;;;;4.90;2.75;;;;;;;-1.16;71.24;147041.28;5060012;28;20056;-64
2023/02/15 09:06:49;;;;;;;6.68;3.03;;;;;;;-1.37;71.30;146990.44;5062440;28;20029;-66
2023/02/15 09:09:21;;;;;;;3.65;2.58;;;;;;;-1.38;69.98;146987.94;5062906;28;20171;-67
2023/02/15 09:11:49;;;;;;;6.50;3.03;;;;;;;-1.20;71.07;147031.09;5062246;28;20062;-64
2023/02/15 09:14:24;;;;;;;6.03;3.50;;;;;;;-1.31;70.53;147005.72;5053625;28;20033;-65
2023/02/15 09:16:52;;;;;;;5.05;3.00;;;;;;;-1.15;71.63;147045.06;5051893;28;20030;-64
2023/02/15 09:19:19;;;;;;;5.28;3.38;;;;;;;-1.13;72.54;147050.13;5059446;28;20067;-65
2023/02/15 09:21:45;;;;;;;8.93;6.43;;;;;;;-1.02;73.33;147075.56;5056475;28;20109;-64
2023/02/15 09:24:14;;;;;;;9.75;3.70;;;;;;;-1.02;72.53;147076.81;5061295;28;20083;-66
2023/02/15 09:26:45;;;;;;;4.93;3.35;;;;;;;-1.13;71.84;147048.88;5056501;28;20033;-63
2023/02/15 09:29:14;;;;;;;5.13;3.22;;;;;;;-0.96;70.92;147092.06;5062655;28;20033;-65
2023/02/15 09:31:49;;;;;;;6.95;3.17;;;;;;;-1.11;71.29;147055.22;5061020;28;20040;-65
2023/02/15 09:34:17;;;;;;;5.38;3.28;;;;;;;-1.16;71.63;147041.28;5062442;28;20029;-65
2023/02/15 09:36:43;;;;;;;7.25;3.13;;;;;;;-1.18;72.65;147036.16;5050236;28;20257;-65
2023/02/15 09:39:13;;;;;;;5.18;3.30;;;;;;;-1.05;72.35;147070.47;5057536;28;20064;-65
2023/02/15 09:42:09;;;;;;;5.70;3.13;;;;;;;-0.99;71.83;147084.44;5047990;28;20075;-66
2023/02/15 09:44:56;;;;;;;6.95;3.03;;;;;;;-1.07;71.03;147064.09;5062282;28;20128;-65
2023/02/15 09:47:59;;;;;;;7.45;3.50;;;;;;;-1.03;71.65;147073.00;5062256;28;20037;-64
2023/02/15 09:50:43;;;;;;;;;;;;;;;-1.13;71.05;147048.88;5055110;28;20110;-64
2023/02/15 09:53:36;;;;;;;6.13;2.90;;;;;;;-1.16;70.03;147042.50;5062369;28;20205;-65
2023/02/15 09:56:01;;;;;;;6.13;3.30;;;;;;;-1.00;71.29;147080.63;5045504;28;20029;-65
2023/02/15 09:59:11;;;;;;;7.72;3.50;;;;;;;-1.05;70.21;147069.22;5061521;28;20059;-64
2023/02/15 10:01:55;;;;;;;5.10;3.20;;;;;;;-0.86;70.96;147116.19;5061441;28;20028;-65
2023/02/15 10:04:33;;;;;;;4.70;2.85;;;;;;;-1.00;70.70;147080.63;5037352;28;20021;-65
2023/02/15 10:07:23;;;;;;;4.03;2.75;;;;;;;-0.88;69.65;147112.38;5056357;28;20032;-65
2023/02/15 10:10:04;;;;;;;5.05;3.10;;;;;;;-0.83;71.15;147122.56;5061614;28;20226;-64
2023/02/15 10:12:35;;;;;;;8.35;2.92;;;;;;;-1.12;71.58;147052.69;5061758;28;20428;-65
2023/02/15 10:15:28;;;;;;;7.22;2.80;;;;;;;-1.08;71.67;147061.59;5061855;28;20040;-66
2023/02/15 10:18:08;;;;;;;4.90;2.88;;;;;;;-0.92;71.66;147102.22;5061562;28;20048;-66
2023/02/15 10:20:43;;;;;;;5.78;3.00;;;;;;;-0.83;70.68;147123.81;5060671;28;20082;-65
2023/02/15 10:23:46;;;;;;;5.43;2.10;;;;;;;-1.15;69.23;147043.81;5061854;28;20029;-66
2023/02/15 10:26:25;;;;;;;5.95;2.67;;;;;;;-0.95;69.78;147093.34;5041220;28;20134;-64
2023/02/15 10:29:29;;;;;;;5.78;2.42;;;;;;;-1.15;70.86;147043.81;5050386;28;20078;-63
2023/02/15 10:32:29;;;;;;;5.55;2.22;;;;;;;-1.11;70.37;147053.94;5049051;28;20037;-65
2023/02/15 10:35:50;;;;;;;3.28;2.28;;;;;;;-0.98;70.37;147087.00;5051748;28;20146;-64
2023/02/15 10:38:34;;;;;;;4.20;2.22;;;;;;;-1.09;70.59;147060.28;5058840;28;20032;-66
2023/02/15 10:41:18;;;;;;;5.63;2.80;;;;;;;-1.06;71.57;147066.66;5059367;28;20064;-65
2023/02/15 10:43:43;;;;;;;4.13;2.53;;;;;;;-0.97;70.44;147089.53;5059125;28;20040;-64
2023/02/15 10:46:24;;;;;;;4.60;2.35;;;;;;;-0.79;70.23;147133.97;5062309;28;20249;-64
2023/02/15 10:49:20;;;;;;;5.07;2.22;;;;;;;-0.90;71.13;147107.31;5063363;28;20040;-65
2023/02/15 10:52:17;;;;;;;5.00;2.47;;;;;;;-0.81;69.50;147127.63;5059061;28;20135;-65
2023/02/15 10:54:49;;;;;;;3.63;2.22;;;;;;;-0.92;69.38;147102.22;5005839;28;20226;-65
2023/02/15 10:57:59;;;;;;;3.58;2.00;;;;;;;-1.20;68.83;147031.09;5066239;28;20055;-66
2023/02/15 11:00:42;;;;;;;5.45;1.95;;;;;;;-0.97;69.39;147088.25;5048498;28;20084;-65
2023/02/15 11:03:10;;;;;;;5.00;2.47;;;;;;;-0.96;70.61;147092.06;5038401;28;20068;-65
2023/02/15 11:06:06;;;;;;;3.50;1.95;;;;;;;-1.00;71.11;147080.63;5065067;28;20097;-66
2023/02/15 11:08:39;;;;;;;5.47;1.70;;;;;;;-1.02;69.60;147076.81;5056900;28;20309;-65
2023/02/15 11:11:09;;;;;;;1.73;1.40;;;;;;;-1.10;69.32;147057.78;5061211;28;20055;-64
2023/02/15 11:13:40;;;;;;;4.95;1.60;;;;;;;-1.10;68.46;147056.50;5060741;28;20078;-65
2023/02/15 11:16:08;;;;;;;3.45;1.60;;;;;;;-0.85;67.93;147118.75;5059543;28;20029;-65
2023/02/15 11:18:46;;;;;;;3.78;1.20;;;;;;;-0.87;66.93;147114.94;5061284;28;20016;-64
2023/02/15 11:21:29;;;;;;;1.80;1.10;;;;;;;-1.23;66.99;147026.03;5061082;28;20033;-64
2023/02/15 11:23:55;;;;;;;2.15;1.30;;;;;;;-1.12;67.16;147051.44;5060841;28;20036;-65
2023/02/15 11:26:29;;;;;;;1.92;1.25;;;;;;;-1.26;68.32;147017.13;5058167;28;20021;-67
2023/02/15 11:29:01;;;;;;;3.17;1.33;;;;;;;-1.29;68.21;147010.78;5047522;28;20032;-65
2023/02/15 11:31:44;;;;;;;1.80;1.13;;;;;;;-1.56;68.23;146944.72;5060379;28;20025;-66
2023/02/15 11:34:31;;;;;;;3.78;1.30;;;;;;;-1.41;68.68;146981.56;5057073;28;20029;-64
2023/02/15 11:37:05;;;;;;;1.80;1.10;;;;;;;-1.32;68.38;147003.16;5052237;28;20065;-65
2023/02/15 11:39:31;;;;;;;3.42;1.35;;;;;;;-1.27;68.34;147014.56;5063525;28;20052;-65
2023/02/15 11:42:07;;;;;;;2.28;1.20;;;;;;;-1.51;67.47;146956.19;5054152;28;20036;-67
2023/02/15 11:44:42;;;;;;;1.73;1.00;;;;;;;-1.24;68.14;147022.19;5047648;28;20112;-68
2023/02/15 11:47:11;;;;;;;1.55;1.05;;;;;;;-1.15;68.02;147043.81;5056769;28;20037;-65
2023/02/15 11:49:37;;;;;;;2.17;1.80;;;;;;;-1.15;67.03;147043.81;5060952;28;20101;-65
2023/02/15 11:52:10;;;;;;;3.22;1.20;;;;;;;-1.28;67.91;147013.31;5064139;28;20029;-65
2023/02/15 11:54:44;;;;;;;2.30;0.98;;;;;;;-1.18;67.11;147037.47;5064108;28;20087;-64
2023/02/15 11:57:28;;;;;;;2.03;1.30;;;;;;;-1.03;67.46;147074.28;5064041;28;20043;-65
2023/02/15 12:00:03;;;;;;;1.88;1.20;;;;;;;-1.10;67.11;147056.50;5064304;28;20044;-65
2023/02/15 12:02:33;;;;;;;1.95;1.08;;;;;;;-1.28;67.17;147013.31;5064038;28;20036;-65
2023/02/15 12:05:09;;;;;;;2.47;1.25;;;;;;;-1.05;67.49;147070.47;5063741;28;20021;-66
2023/02/15 12:07:42;;;;;;;1.25;1.00;;;;;;;-1.19;67.52;147034.91;5063972;28;20067;-65
2023/02/15 12:10:22;;;;;;;1.65;1.10;;;;;;;-1.29;67.56;147010.78;5063869;28;20032;-64
2023/02/15 12:12:47;;;;;;;2.08;1.27;;;;;;;-1.34;68.02;146996.81;5052076;28;20033;-65